KORL

Orlando Executive Airport

Airport
ICAO code
KORL
Summary
ICAO Region
NAM
ICAO Territory
Location

Orlando, Florida,

Coordinates
28° 32' 44" N , 81° 19' 58" W
KCC
Airport WX
Tropical Revolving Storm
Metar
KORL 191853Z 06012G20KT 10SM -RA BKN055 OVC070 27/24 A3008 RMK AO2 PK WND 06026/1805 RAB18 SLP188 T02720239 PNO $

Description

Airport 3 nm east of Orlando, Florida, USA.

Climatology

Humid “subtropical” climate (Köppen climate classification Cfa) - characterized by hot, humid summers and cool winters. From October to March the temperatures are more moderate and rain less frequent. Most summer rainfall occurs during thunderstorms and occasional tropical storms (hurricanes).

Runways

Designator Length Width Surface Rops
13/31 1414 30 ASP Yes/Yes
7/25 1830 46 ASP Yes/Yes

Airport map

Aerial View

SKYbrary Partners:

Safety knowledge contributed by: